sensor_id;sensor_type;location;lat;lon;timestamp;temperature;humidity
52879;DHT22;38747;53.140;6.498;2023-06-24T00:01:17;16.50;99.90
52879;DHT22;38747;53.140;6.498;2023-06-24T00:03:42;16.40;99.90
52879;DHT22;38747;53.140;6.498;2023-06-24T00:06:12;16.40;99.90
52879;DHT22;38747;53.140;6.498;2023-06-24T00:08:47;16.30;99.90
52879;DHT22;38747;53.140;6.498;2023-06-24T00:11:13;16.30;99.90
52879;DHT22;38747;53.140;6.498;2023-06-24T00:13:40;16.30;99.90
52879;DHT22;38747;53.140;6.498;2023-06-24T00:16:05;16.20;99.90
52879;DHT22;38747;53.140;6.498;2023-06-24T00:18:32;16.10;99.90
52879;DHT22;38747;53.140;6.498;2023-06-24T00:20:58;16.10;99.90
52879;DHT22;38747;53.140;6.498;2023-06-24T00:23:24;16.10;99.90
52879;DHT22;38747;53.140;6.498;2023-06-24T00:25:53;16.10;99.90
52879;DHT22;38747;53.140;6.498;2023-06-24T00:28:23;16.10;99.90
52879;DHT22;38747;53.140;6.498;2023-06-24T00:30:49;16.10;99.90
52879;DHT22;38747;53.140;6.498;2023-06-24T00:33:15;16.10;99.90
52879;DHT22;38747;53.140;6.498;2023-06-24T00:35:42;16.00;99.90
52879;DHT22;38747;53.140;6.498;2023-06-24T00:38:08;16.00;99.90
52879;DHT22;38747;53.140;6.498;2023-06-24T00:40:34;16.00;99.90
52879;DHT22;38747;53.140;6.498;2023-06-24T00:43:00;16.00;99.90
52879;DHT22;38747;53.140;6.498;2023-06-24T00:45:28;15.90;99.90
52879;DHT22;38747;53.140;6.498;2023-06-24T00:47:55;15.90;99.90
52879;DHT22;38747;53.140;6.498;2023-06-24T00:50:22;15.90;99.90
52879;DHT22;38747;53.140;6.498;2023-06-24T00:52:47;15.90;99.90
52879;DHT22;38747;53.140;6.498;2023-06-24T00:55:15;15.90;99.90
52879;DHT22;38747;53.140;6.498;2023-06-24T00:57:44;15.80;99.90
52879;DHT22;38747;53.140;6.498;2023-06-24T01:00:11;15.80;99.90
52879;DHT22;38747;53.140;6.498;2023-06-24T01:02:41;15.70;99.90
52879;DHT22;38747;53.140;6.498;2023-06-24T01:05:09;15.70;99.90
52879;DHT22;38747;53.140;6.498;2023-06-24T01:07:37;15.70;99.90
52879;DHT22;38747;53.140;6.498;2023-06-24T01:10:04;15.70;99.90
52879;DHT22;38747;53.140;6.498;2023-06-24T01:12:34;15.60;99.90
52879;DHT22;38747;53.140;6.498;2023-06-24T01:15:02;15.60;99.90
52879;DHT22;38747;53.140;6.498;2023-06-24T01:17:35;15.60;99.90
52879;DHT22;38747;53.140;6.498;2023-06-24T01:20:15;15.60;99.90
52879;DHT22;38747;53.140;6.498;2023-06-24T01:34:03;15.40;99.90
52879;DHT22;38747;53.140;6.498;2023-06-24T01:36:34;15.40;99.90
52879;DHT22;38747;53.140;6.498;2023-06-24T01:39:03;15.30;99.90
52879;DHT22;38747;53.140;6.498;2023-06-24T01:41:36;15.30;99.90
52879;DHT22;38747;53.140;6.498;2023-06-24T01:44:05;15.30;99.90
52879;DHT22;38747;53.140;6.498;2023-06-24T01:46:35;15.30;99.90
52879;DHT22;38747;53.140;6.498;2023-06-24T01:49:04;15.30;99.90
52879;DHT22;38747;53.140;6.498;2023-06-24T01:51:32;15.30;99.90
52879;DHT22;38747;53.140;6.498;2023-06-24T01:54:06;15.30;99.90
52879;DHT22;38747;53.140;6.498;2023-06-24T01:56:33;15.30;99.90
52879;DHT22;38747;53.140;6.498;2023-06-24T01:59:02;15.20;99.90
52879;DHT22;38747;53.140;6.498;2023-06-24T02:01:31;15.30;99.90
52879;DHT22;38747;53.140;6.498;2023-06-24T02:04:00;15.30;99.90
52879;DHT22;38747;53.140;6.498;2023-06-24T02:06:28;15.20;99.90
52879;DHT22;38747;53.140;6.498;2023-06-24T02:08:56;15.20;99.90
52879;DHT22;38747;53.140;6.498;2023-06-24T02:11:24;15.20;99.90
52879;DHT22;38747;53.140;6.498;2023-06-24T02:13:53;15.20;99.90
52879;DHT22;38747;53.140;6.498;2023-06-24T02:16:21;15.10;99.90
52879;DHT22;38747;53.140;6.498;2023-06-24T02:18:47;15.10;99.90
52879;DHT22;38747;53.140;6.498;2023-06-24T02:21:18;15.10;99.90
52879;DHT22;38747;53.140;6.498;2023-06-24T02:23:46;15.10;99.90
52879;DHT22;38747;53.140;6.498;2023-06-24T02:26:13;15.10;99.90
52879;DHT22;38747;53.140;6.498;2023-06-24T02:28:40;15.10;99.90
52879;DHT22;38747;53.140;6.498;2023-06-24T02:31:06;15.00;99.90
52879;DHT22;38747;53.140;6.498;2023-06-24T02:33:34;15.00;99.90
52879;DHT22;38747;53.140;6.498;2023-06-24T02:36:00;15.00;99.90
52879;DHT22;38747;53.140;6.498;2023-06-24T02:38:26;15.00;99.90
52879;DHT22;38747;53.140;6.498;2023-06-24T02:40:52;15.00;99.90
52879;DHT22;38747;53.140;6.498;2023-06-24T02:43:17;15.00;99.90
52879;DHT22;38747;53.140;6.498;2023-06-24T02:45:44;15.00;99.90
52879;DHT22;38747;53.140;6.498;2023-06-24T02:48:11;14.90;99.90
52879;DHT22;38747;53.140;6.498;2023-06-24T02:50:39;15.00;99.90
52879;DHT22;38747;53.140;6.498;2023-06-24T02:53:11;15.00;99.90
52879;DHT22;38747;53.140;6.498;2023-06-24T02:55:38;15.00;99.90
52879;DHT22;38747;53.140;6.498;2023-06-24T02:58:05;14.90;99.90
52879;DHT22;38747;53.140;6.498;2023-06-24T03:00:37;14.90;99.90
52879;DHT22;38747;53.140;6.498;2023-06-24T03:03:04;14.90;99.90
52879;DHT22;38747;53.140;6.498;2023-06-24T03:05:31;14.90;99.90
52879;DHT22;38747;53.140;6.498;2023-06-24T03:07:58;14.80;99.90
52879;DHT22;38747;53.140;6.498;2023-06-24T03:10:25;14.90;99.90
52879;DHT22;38747;53.140;6.498;2023-06-24T03:12:53;14.90;99.90
52879;DHT22;38747;53.140;6.498;2023-06-24T03:15:19;14.90;99.90
52879;DHT22;38747;53.140;6.498;2023-06-24T03:17:45;14.90;99.90
52879;DHT22;38747;53.140;6.498;2023-06-24T03:20:11;14.90;99.90
52879;DHT22;38747;53.140;6.498;2023-06-24T03:22:37;14.80;99.90
52879;DHT22;38747;53.140;6.498;2023-06-24T03:25:03;14.80;99.90
52879;DHT22;38747;53.140;6.498;2023-06-24T03:27:28;14.80;99.90
52879;DHT22;38747;53.140;6.498;2023-06-24T03:29:54;14.80;99.90
52879;DHT22;38747;53.140;6.498;2023-06-24T03:32:19;14.90;99.90
52879;DHT22;38747;53.140;6.498;2023-06-24T03:34:45;14.80;99.90
52879;DHT22;38747;53.140;6.498;2023-06-24T03:37:11;14.90;99.90
52879;DHT22;38747;53.140;6.498;2023-06-24T03:39:37;14.90;99.90
52879;DHT22;38747;53.140;6.498;2023-06-24T03:42:03;14.90;99.90
52879;DHT22;38747;53.140;6.498;2023-06-24T03:44:28;14.80;99.90
52879;DHT22;38747;53.140;6.498;2023-06-24T03:46:54;14.90;99.90
52879;DHT22;38747;53.140;6.498;2023-06-24T03:49:19;14.80;99.90
52879;DHT22;38747;53.140;6.498;2023-06-24T03:51:45;14.90;99.90
52879;DHT22;38747;53.140;6.498;2023-06-24T03:54:11;14.90;99.90
52879;DHT22;38747;53.140;6.498;2023-06-24T03:56:37;14.90;99.90
52879;DHT22;38747;53.140;6.498;2023-06-24T03:59:02;14.90;99.90
52879;DHT22;38747;53.140;6.498;2023-06-24T04:01:28;14.90;99.90
52879;DHT22;38747;53.140;6.498;2023-06-24T04:03:57;14.90;99.90
52879;DHT22;38747;53.140;6.498;2023-06-24T04:06:23;15.00;99.90
52879;DHT22;38747;53.140;6.498;2023-06-24T04:08:48;15.00;99.90
52879;DHT22;38747;53.140;6.498;2023-06-24T04:11:14;15.00;99.90
52879;DHT22;38747;53.140;6.498;2023-06-24T04:13:40;15.10;99.90
52879;DHT22;38747;53.140;6.498;2023-06-24T04:16:05;15.20;99.90
52879;DHT22;38747;53.140;6.498;2023-06-24T04:18:31;15.50;99.90
52879;DHT22;38747;53.140;6.498;2023-06-24T04:20:56;15.70;99.90
52879;DHT22;38747;53.140;6.498;2023-06-24T04:23:23;15.70;99.90
52879;DHT22;38747;53.140;6.498;2023-06-24T04:25:49;15.60;99.90
52879;DHT22;38747;53.140;6.498;2023-06-24T04:28:14;15.80;99.90
52879;DHT22;38747;53.140;6.498;2023-06-24T04:30:40;16.00;99.90
52879;DHT22;38747;53.140;6.498;2023-06-24T04:33:06;16.10;99.90
52879;DHT22;38747;53.140;6.498;2023-06-24T04:35:32;16.00;99.90
52879;DHT22;38747;53.140;6.498;2023-06-24T04:37:57;16.00;99.90
52879;DHT22;38747;53.140;6.498;2023-06-24T04:40:23;16.00;99.90
52879;DHT22;38747;53.140;6.498;2023-06-24T04:42:49;16.20;99.90
52879;DHT22;38747;53.140;6.498;2023-06-24T04:45:14;16.40;99.90
52879;DHT22;38747;53.140;6.498;2023-06-24T04:47:40;16.40;99.90
52879;DHT22;38747;53.140;6.498;2023-06-24T04:50:06;16.40;99.90
52879;DHT22;38747;53.140;6.498;2023-06-24T04:52:35;16.30;99.90
52879;DHT22;38747;53.140;6.498;2023-06-24T04:55:01;16.30;99.90
52879;DHT22;38747;53.140;6.498;2023-06-24T04:57:28;16.30;99.90
52879;DHT22;38747;53.140;6.498;2023-06-24T04:59:54;16.40;99.90
52879;DHT22;38747;53.140;6.498;2023-06-24T05:02:20;16.30;99.90
52879;DHT22;38747;53.140;6.498;2023-06-24T05:04:45;16.30;99.90
52879;DHT22;38747;53.140;6.498;2023-06-24T05:07:11;16.30;99.90
52879;DHT22;38747;53.140;6.498;2023-06-24T05:09:37;16.30;99.90
52879;DHT22;38747;53.140;6.498;2023-06-24T05:12:07;16.30;99.90
52879;DHT22;38747;53.140;6.498;2023-06-24T05:14:36;16.40;99.90
52879;DHT22;38747;53.140;6.498;2023-06-24T05:17:05;16.50;99.90
52879;DHT22;38747;53.140;6.498;2023-06-24T05:19:31;16.60;99.90
52879;DHT22;38747;53.140;6.498;2023-06-24T05:21:57;16.70;99.90
52879;DHT22;38747;53.140;6.498;2023-06-24T05:24:23;16.70;99.90
52879;DHT22;38747;53.140;6.498;2023-06-24T05:26:50;16.80;99.90
52879;DHT22;38747;53.140;6.498;2023-06-24T05:29:17;16.80;99.90
52879;DHT22;38747;53.140;6.498;2023-06-24T05:31:42;16.90;99.90
52879;DHT22;38747;53.140;6.498;2023-06-24T05:34:08;17.00;99.90
52879;DHT22;38747;53.140;6.498;2023-06-24T05:36:34;17.10;99.90
52879;DHT22;38747;53.140;6.498;2023-06-24T05:39:00;17.50;99.90
52879;DHT22;38747;53.140;6.498;2023-06-24T05:41:26;17.90;99.90
52879;DHT22;38747;53.140;6.498;2023-06-24T05:44:06;18.00;99.90
52879;DHT22;38747;53.140;6.498;2023-06-24T05:46:32;18.00;99.90
52879;DHT22;38747;53.140;6.498;2023-06-24T05:48:58;18.00;99.90
52879;DHT22;38747;53.140;6.498;2023-06-24T05:51:23;18.00;99.90
52879;DHT22;38747;53.140;6.498;2023-06-24T05:53:49;18.20;99.90
52879;DHT22;38747;53.140;6.498;2023-06-24T05:56:15;18.20;99.90
52879;DHT22;38747;53.140;6.498;2023-06-24T05:58:40;18.20;99.90
52879;DHT22;38747;53.140;6.498;2023-06-24T06:01:07;18.20;99.90
52879;DHT22;38747;53.140;6.498;2023-06-24T06:03:32;18.20;99.90
52879;DHT22;38747;53.140;6.498;2023-06-24T06:05:58;18.20;99.90
52879;DHT22;38747;53.140;6.498;2023-06-24T06:08:24;18.20;99.90
52879;DHT22;38747;53.140;6.498;2023-06-24T06:10:49;18.30;99.90
52879;DHT22;38747;53.140;6.498;2023-06-24T06:13:15;18.30;99.90
52879;DHT22;38747;53.140;6.498;2023-06-24T06:15:40;18.40;99.90
52879;DHT22;38747;53.140;6.498;2023-06-24T06:18:06;18.40;99.90
52879;DHT22;38747;53.140;6.498;2023-06-24T06:20:32;18.50;99.90
52879;DHT22;38747;53.140;6.498;2023-06-24T06:22:57;18.60;99.90
52879;DHT22;38747;53.140;6.498;2023-06-24T06:25:23;18.70;99.90
52879;DHT22;38747;53.140;6.498;2023-06-24T06:27:49;18.90;99.90
52879;DHT22;38747;53.140;6.498;2023-06-24T06:30:15;19.00;99.90
52879;DHT22;38747;53.140;6.498;2023-06-24T06:32:41;19.20;99.90
52879;DHT22;38747;53.140;6.498;2023-06-24T06:35:07;19.30;99.90
52879;DHT22;38747;53.140;6.498;2023-06-24T06:37:33;19.40;99.90
52879;DHT22;38747;53.140;6.498;2023-06-24T06:39:59;19.60;99.90
52879;DHT22;38747;53.140;6.498;2023-06-24T06:42:25;19.60;99.90
52879;DHT22;38747;53.140;6.498;2023-06-24T06:44:51;19.80;99.90
52879;DHT22;38747;53.140;6.498;2023-06-24T06:47:16;19.90;99.90
52879;DHT22;38747;53.140;6.498;2023-06-24T06:49:42;20.00;99.90
52879;DHT22;38747;53.140;6.498;2023-06-24T06:52:08;20.10;99.90
52879;DHT22;38747;53.140;6.498;2023-06-24T06:54:33;20.30;99.90
52879;DHT22;38747;53.140;6.498;2023-06-24T06:57:03;20.40;99.90
52879;DHT22;38747;53.140;6.498;2023-06-24T06:59:30;20.60;99.90
52879;DHT22;38747;53.140;6.498;2023-06-24T07:01:55;20.70;99.90
52879;DHT22;38747;53.140;6.498;2023-06-24T07:04:21;20.70;99.90
52879;DHT22;38747;53.140;6.498;2023-06-24T07:06:47;20.80;99.90
52879;DHT22;38747;53.140;6.498;2023-06-24T07:09:13;20.90;99.90
52879;DHT22;38747;53.140;6.498;2023-06-24T07:11:39;20.90;99.90
52879;DHT22;38747;53.140;6.498;2023-06-24T07:14:04;21.00;99.90
52879;DHT22;38747;53.140;6.498;2023-06-24T07:16:30;21.10;99.90
52879;DHT22;38747;53.140;6.498;2023-06-24T07:18:55;21.20;99.90
52879;DHT22;38747;53.140;6.498;2023-06-24T07:21:21;21.20;99.90
52879;DHT22;38747;53.140;6.498;2023-06-24T07:23:47;21.30;99.90
52879;DHT22;38747;53.140;6.498;2023-06-24T07:26:13;21.30;99.90
52879;DHT22;38747;53.140;6.498;2023-06-24T07:28:39;21.40;99.90
52879;DHT22;38747;53.140;6.498;2023-06-24T07:31:04;21.60;99.90
52879;DHT22;38747;53.140;6.498;2023-06-24T07:33:30;21.70;99.90
52879;DHT22;38747;53.140;6.498;2023-06-24T07:35:57;21.70;99.90
52879;DHT22;38747;53.140;6.498;2023-06-24T07:38:22;21.80;99.90
52879;DHT22;38747;53.140;6.498;2023-06-24T07:40:48;21.90;99.90
52879;DHT22;38747;53.140;6.498;2023-06-24T07:43:14;22.00;99.90
52879;DHT22;38747;53.140;6.498;2023-06-24T07:45:40;22.10;99.90
52879;DHT22;38747;53.140;6.498;2023-06-24T07:48:05;22.20;99.90
52879;DHT22;38747;53.140;6.498;2023-06-24T07:50:33;22.40;99.90
52879;DHT22;38747;53.140;6.498;2023-06-24T07:52:59;22.40;99.90
52879;DHT22;38747;53.140;6.498;2023-06-24T07:55:24;22.60;99.90
52879;DHT22;38747;53.140;6.498;2023-06-24T07:57:50;22.60;99.90
52879;DHT22;38747;53.140;6.498;2023-06-24T08:00:16;22.70;99.90
52879;DHT22;38747;53.140;6.498;2023-06-24T08:02:42;22.70;99.90
52879;DHT22;38747;53.140;6.498;2023-06-24T08:05:08;22.80;99.90
52879;DHT22;38747;53.140;6.498;2023-06-24T08:07:39;22.90;99.90
52879;DHT22;38747;53.140;6.498;2023-06-24T08:10:05;23.00;99.90
52879;DHT22;38747;53.140;6.498;2023-06-24T08:12:31;23.10;99.90
52879;DHT22;38747;53.140;6.498;2023-06-24T08:14:57;23.20;99.90
52879;DHT22;38747;53.140;6.498;2023-06-24T08:17:23;23.30;99.90
52879;DHT22;38747;53.140;6.498;2023-06-24T08:19:49;23.40;99.90
52879;DHT22;38747;53.140;6.498;2023-06-24T08:22:14;23.50;99.90
52879;DHT22;38747;53.140;6.498;2023-06-24T08:24:40;23.50;99.90
52879;DHT22;38747;53.140;6.498;2023-06-24T08:27:06;23.50;99.90
52879;DHT22;38747;53.140;6.498;2023-06-24T08:29:31;23.50;99.90
52879;DHT22;38747;53.140;6.498;2023-06-24T08:31:57;23.50;99.90
52879;DHT22;38747;53.140;6.498;2023-06-24T08:34:23;23.60;99.90
52879;DHT22;38747;53.140;6.498;2023-06-24T08:36:48;23.70;99.90
52879;DHT22;38747;53.140;6.498;2023-06-24T08:39:14;23.70;99.90
52879;DHT22;38747;53.140;6.498;2023-06-24T08:41:39;23.80;99.90
52879;DHT22;38747;53.140;6.498;2023-06-24T08:44:05;23.80;99.90
52879;DHT22;38747;53.140;6.498;2023-06-24T08:46:31;23.80;99.90
52879;DHT22;38747;53.140;6.498;2023-06-24T08:49:25;23.90;99.90
52879;DHT22;38747;53.140;6.498;2023-06-24T08:52:13;24.00;99.90
52879;DHT22;38747;53.140;6.498;2023-06-24T08:54:40;24.00;99.90
52879;DHT22;38747;53.140;6.498;2023-06-24T08:57:06;24.10;99.90
52879;DHT22;38747;53.140;6.498;2023-06-24T08:59:34;24.10;99.90
52879;DHT22;38747;53.140;6.498;2023-06-24T09:02:01;24.10;99.90
52879;DHT22;38747;53.140;6.498;2023-06-24T09:04:26;24.20;99.90
52879;DHT22;38747;53.140;6.498;2023-06-24T09:06:52;24.20;99.90
52879;DHT22;38747;53.140;6.498;2023-06-24T09:09:22;24.30;99.90
52879;DHT22;38747;53.140;6.498;2023-06-24T09:12:01;24.40;99.90
52879;DHT22;38747;53.140;6.498;2023-06-24T09:14:30;24.50;99.90
52879;DHT22;38747;53.140;6.498;2023-06-24T09:16:57;24.50;99.90
52879;DHT22;38747;53.140;6.498;2023-06-24T09:19:24;24.60;99.90
52879;DHT22;38747;53.140;6.498;2023-06-24T09:21:51;24.60;99.90
52879;DHT22;38747;53.140;6.498;2023-06-24T09:24:19;24.80;99.90
52879;DHT22;38747;53.140;6.498;2023-06-24T09:26:45;24.90;99.90
52879;DHT22;38747;53.140;6.498;2023-06-24T09:29:17;24.90;99.90
52879;DHT22;38747;53.140;6.498;2023-06-24T09:31:49;25.10;99.90
52879;DHT22;38747;53.140;6.498;2023-06-24T09:34:16;25.30;99.90
52879;DHT22;38747;53.140;6.498;2023-06-24T09:36:43;25.30;99.90
52879;DHT22;38747;53.140;6.498;2023-06-24T09:39:09;25.30;99.90
52879;DHT22;38747;53.140;6.498;2023-06-24T09:41:35;25.50;99.90
52879;DHT22;38747;53.140;6.498;2023-06-24T09:44:01;25.60;99.90
52879;DHT22;38747;53.140;6.498;2023-06-24T09:46:29;25.70;99.90
52879;DHT22;38747;53.140;6.498;2023-06-24T09:48:55;25.70;99.90
52879;DHT22;38747;53.140;6.498;2023-06-24T09:51:22;25.80;99.90
52879;DHT22;38747;53.140;6.498;2023-06-24T09:53:50;25.90;99.90
52879;DHT22;38747;53.140;6.498;2023-06-24T09:56:18;26.10;99.90
52879;DHT22;38747;53.140;6.498;2023-06-24T09:58:44;26.10;99.90
52879;DHT22;38747;53.140;6.498;2023-06-24T10:01:11;26.30;99.90
52879;DHT22;38747;53.140;6.498;2023-06-24T10:03:38;26.50;99.90
52879;DHT22;38747;53.140;6.498;2023-06-24T10:06:05;26.70;99.90
52879;DHT22;38747;53.140;6.498;2023-06-24T10:08:31;26.90;99.90
52879;DHT22;38747;53.140;6.498;2023-06-24T10:10:58;27.10;99.90
52879;DHT22;38747;53.140;6.498;2023-06-24T10:13:25;27.20;99.90
52879;DHT22;38747;53.140;6.498;2023-06-24T10:15:51;27.40;99.90
52879;DHT22;38747;53.140;6.498;2023-06-24T10:18:44;27.50;99.90
52879;DHT22;38747;53.140;6.498;2023-06-24T10:21:11;27.40;99.90
52879;DHT22;38747;53.140;6.498;2023-06-24T10:26:29;27.50;99.60
52879;DHT22;38747;53.140;6.498;2023-06-24T10:36:59;27.80;98.80
52879;DHT22;38747;53.140;6.498;2023-06-24T10:44:57;28.20;97.00
52879;DHT22;38747;53.140;6.498;2023-06-24T10:47:24;28.20;96.90
52879;DHT22;38747;53.140;6.498;2023-06-24T10:49:50;28.30;96.50
52879;DHT22;38747;53.140;6.498;2023-06-24T10:52:18;28.40;96.20
52879;DHT22;38747;53.140;6.498;2023-06-24T10:54:44;28.50;96.30
52879;DHT22;38747;53.140;6.498;2023-06-24T10:57:11;28.60;95.80
52879;DHT22;38747;53.140;6.498;2023-06-24T10:59:47;28.70;95.70
52879;DHT22;38747;53.140;6.498;2023-06-24T11:02:17;28.80;95.80
52879;DHT22;38747;53.140;6.498;2023-06-24T11:04:44;29.00;95.20
52879;DHT22;38747;53.140;6.498;2023-06-24T11:07:10;29.20;95.90
52879;DHT22;38747;53.140;6.498;2023-06-24T11:09:36;29.30;95.30
52879;DHT22;38747;53.140;6.498;2023-06-24T11:12:05;29.40;94.90
52879;DHT22;38747;53.140;6.498;2023-06-24T11:14:33;29.40;94.40
52879;DHT22;38747;53.140;6.498;2023-06-24T11:17:01;29.20;94.30
52879;DHT22;38747;53.140;6.498;2023-06-24T11:19:27;28.80;94.20
52879;DHT22;38747;53.140;6.498;2023-06-24T11:21:55;28.50;95.00
52879;DHT22;38747;53.140;6.498;2023-06-24T11:24:22;28.60;94.90
52879;DHT22;38747;53.140;6.498;2023-06-24T11:26:48;28.80;94.90
52879;DHT22;38747;53.140;6.498;2023-06-24T11:29:13;29.10;94.70
52879;DHT22;38747;53.140;6.498;2023-06-24T11:31:39;29.40;94.60
52879;DHT22;38747;53.140;6.498;2023-06-24T11:34:04;29.60;94.40
52879;DHT22;38747;53.140;6.498;2023-06-24T11:36:30;29.70;94.20
52879;DHT22;38747;53.140;6.498;2023-06-24T11:38:56;29.80;93.70
52879;DHT22;38747;53.140;6.498;2023-06-24T11:41:22;29.80;93.50
52879;DHT22;38747;53.140;6.498;2023-06-24T11:43:48;30.00;93.80
52879;DHT22;38747;53.140;6.498;2023-06-24T11:46:24;29.80;93.40
52879;DHT22;38747;53.140;6.498;2023-06-24T11:48:50;29.60;92.50
52879;DHT22;38747;53.140;6.498;2023-06-24T11:51:16;29.60;93.30
52879;DHT22;38747;53.140;6.498;2023-06-24T11:53:43;29.70;93.10
52879;DHT22;38747;53.140;6.498;2023-06-24T11:56:09;29.70;93.10
52879;DHT22;38747;53.140;6.498;2023-06-24T11:58:35;29.50;93.00
52879;DHT22;38747;53.140;6.498;2023-06-24T12:01:01;29.20;93.50
52879;DHT22;38747;53.140;6.498;2023-06-24T12:03:32;28.90;93.20
52879;DHT22;38747;53.140;6.498;2023-06-24T12:05:59;28.80;93.50
52879;DHT22;38747;53.140;6.498;2023-06-24T12:08:24;29.00;93.80
52879;DHT22;38747;53.140;6.498;2023-06-24T12:10:51;29.30;93.70
52879;DHT22;38747;53.140;6.498;2023-06-24T12:13:16;29.50;93.70
52879;DHT22;38747;53.140;6.498;2023-06-24T12:15:42;29.50;93.20
52879;DHT22;38747;53.140;6.498;2023-06-24T12:18:08;29.80;93.20
52879;DHT22;38747;53.140;6.498;2023-06-24T12:20:34;30.00;92.80
52879;DHT22;38747;53.140;6.498;2023-06-24T12:23:02;29.90;92.80
52879;DHT22;38747;53.140;6.498;2023-06-24T12:25:29;29.60;92.80
52879;DHT22;38747;53.140;6.498;2023-06-24T12:27:55;29.40;92.20
52879;DHT22;38747;53.140;6.498;2023-06-24T12:30:21;29.30;92.60
52879;DHT22;38747;53.140;6.498;2023-06-24T12:32:50;29.20;92.40
52879;DHT22;38747;53.140;6.498;2023-06-24T12:35:17;29.40;93.00
52879;DHT22;38747;53.140;6.498;2023-06-24T12:37:42;29.70;93.20
52879;DHT22;38747;53.140;6.498;2023-06-24T12:40:10;29.80;93.00
52879;DHT22;38747;53.140;6.498;2023-06-24T12:42:36;30.10;92.40
52879;DHT22;38747;53.140;6.498;2023-06-24T12:45:02;30.30;92.10
52879;DHT22;38747;53.140;6.498;2023-06-24T12:47:28;30.20;92.00
52879;DHT22;38747;53.140;6.498;2023-06-24T12:49:53;30.20;91.80
52879;DHT22;38747;53.140;6.498;2023-06-24T12:52:19;30.20;91.50
52879;DHT22;38747;53.140;6.498;2023-06-24T12:54:45;30.00;91.70
52879;DHT22;38747;53.140;6.498;2023-06-24T12:57:10;30.00;91.70
52879;DHT22;38747;53.140;6.498;2023-06-24T12:59:36;29.80;91.90
52879;DHT22;38747;53.140;6.498;2023-06-24T13:02:02;29.70;91.90
52879;DHT22;38747;53.140;6.498;2023-06-24T13:04:27;29.50;92.10
52879;DHT22;38747;53.140;6.498;2023-06-24T13:06:53;29.60;92.60
52879;DHT22;38747;53.140;6.498;2023-06-24T13:09:19;29.50;92.30
52879;DHT22;38747;53.140;6.498;2023-06-24T13:11:45;29.40;92.30
52879;DHT22;38747;53.140;6.498;2023-06-24T13:14:11;29.30;92.20
52879;DHT22;38747;53.140;6.498;2023-06-24T13:16:36;29.30;92.60
52879;DHT22;38747;53.140;6.498;2023-06-24T13:19:03;29.30;92.60
52879;DHT22;38747;53.140;6.498;2023-06-24T13:21:28;29.30;92.40
52879;DHT22;38747;53.140;6.498;2023-06-24T13:23:54;29.20;92.50
52879;DHT22;38747;53.140;6.498;2023-06-24T13:26:20;29.30;92.50
52879;DHT22;38747;53.140;6.498;2023-06-24T13:28:46;29.50;92.70
52879;DHT22;38747;53.140;6.498;2023-06-24T13:31:11;29.60;92.40
52879;DHT22;38747;53.140;6.498;2023-06-24T13:33:37;29.70;92.70
52879;DHT22;38747;53.140;6.498;2023-06-24T13:36:04;29.90;92.50
52879;DHT22;38747;53.140;6.498;2023-06-24T13:38:32;30.20;92.40
52879;DHT22;38747;53.140;6.498;2023-06-24T13:40:57;30.50;91.90
52879;DHT22;38747;53.140;6.498;2023-06-24T13:43:23;30.40;91.50
52879;DHT22;38747;53.140;6.498;2023-06-24T13:45:49;30.40;91.50
52879;DHT22;38747;53.140;6.498;2023-06-24T13:48:14;30.60;91.50
52879;DHT22;38747;53.140;6.498;2023-06-24T13:50:40;30.80;91.50
52879;DHT22;38747;53.140;6.498;2023-06-24T13:53:06;30.60;91.30
52879;DHT22;38747;53.140;6.498;2023-06-24T13:55:31;30.30;91.20
52879;DHT22;38747;53.140;6.498;2023-06-24T13:57:57;30.20;91.50
52879;DHT22;38747;53.140;6.498;2023-06-24T14:00:23;29.80;90.60
52879;DHT22;38747;53.140;6.498;2023-06-24T14:02:48;29.60;90.30
52879;DHT22;38747;53.140;6.498;2023-06-24T14:05:14;29.50;90.80
52879;DHT22;38747;53.140;6.498;2023-06-24T14:07:40;29.60;91.40
52879;DHT22;38747;53.140;6.498;2023-06-24T14:10:06;29.50;91.80
52879;DHT22;38747;53.140;6.498;2023-06-24T14:12:32;29.30;91.10
52879;DHT22;38747;53.140;6.498;2023-06-24T14:14:57;29.10;91.60
52879;DHT22;38747;53.140;6.498;2023-06-24T14:17:24;29.00;92.40
52879;DHT22;38747;53.140;6.498;2023-06-24T14:19:50;28.90;93.00
52879;DHT22;38747;53.140;6.498;2023-06-24T14:22:16;28.80;93.10
52879;DHT22;38747;53.140;6.498;2023-06-24T14:24:43;28.60;93.30
52879;DHT22;38747;53.140;6.498;2023-06-24T14:27:08;28.50;93.00
52879;DHT22;38747;53.140;6.498;2023-06-24T14:29:34;28.20;91.40
52879;DHT22;38747;53.140;6.498;2023-06-24T14:32:00;28.10;92.80
52879;DHT22;38747;53.140;6.498;2023-06-24T14:34:26;28.00;92.50
52879;DHT22;38747;53.140;6.498;2023-06-24T14:36:55;28.00;93.80
52879;DHT22;38747;53.140;6.498;2023-06-24T14:39:21;28.00;93.00
52879;DHT22;38747;53.140;6.498;2023-06-24T14:41:46;28.00;93.20
52879;DHT22;38747;53.140;6.498;2023-06-24T14:44:12;28.10;93.10
52879;DHT22;38747;53.140;6.498;2023-06-24T14:46:38;28.20;93.60
52879;DHT22;38747;53.140;6.498;2023-06-24T14:49:03;28.50;93.70
52879;DHT22;38747;53.140;6.498;2023-06-24T14:51:29;28.60;92.40
52879;DHT22;38747;53.140;6.498;2023-06-24T14:53:55;28.40;90.60
52879;DHT22;38747;53.140;6.498;2023-06-24T14:56:20;28.30;90.60
52879;DHT22;38747;53.140;6.498;2023-06-24T14:58:46;28.30;91.50
52879;DHT22;38747;53.140;6.498;2023-06-24T15:01:12;28.30;91.80
52879;DHT22;38747;53.140;6.498;2023-06-24T15:03:37;28.20;92.10
52879;DHT22;38747;53.140;6.498;2023-06-24T15:06:03;28.40;92.80
52879;DHT22;38747;53.140;6.498;2023-06-24T15:08:29;28.50;93.20
52879;DHT22;38747;53.140;6.498;2023-06-24T15:10:54;28.50;93.10
52879;DHT22;38747;53.140;6.498;2023-06-24T15:13:20;28.50;92.50
52879;DHT22;38747;53.140;6.498;2023-06-24T15:15:46;28.40;92.20
52879;DHT22;38747;53.140;6.498;2023-06-24T15:18:12;28.30;91.80
52879;DHT22;38747;53.140;6.498;2023-06-24T15:20:40;28.10;92.10
52879;DHT22;38747;53.140;6.498;2023-06-24T15:23:05;27.90;92.90
52879;DHT22;38747;53.140;6.498;2023-06-24T15:25:31;27.60;93.40
52879;DHT22;38747;53.140;6.498;2023-06-24T15:27:58;27.40;94.30
52879;DHT22;38747;53.140;6.498;2023-06-24T15:30:24;27.30;94.60
52879;DHT22;38747;53.140;6.498;2023-06-24T15:32:51;27.10;94.80
52879;DHT22;38747;53.140;6.498;2023-06-24T15:35:17;27.00;95.00
52879;DHT22;38747;53.140;6.498;2023-06-24T15:37:42;27.00;95.70
52879;DHT22;38747;53.140;6.498;2023-06-24T15:40:08;27.00;96.10
52879;DHT22;38747;53.140;6.498;2023-06-24T15:42:34;26.90;96.30
52879;DHT22;38747;53.140;6.498;2023-06-24T15:45:00;26.80;96.30
52879;DHT22;38747;53.140;6.498;2023-06-24T15:47:26;26.60;96.00
52879;DHT22;38747;53.140;6.498;2023-06-24T15:49:53;26.40;96.10
52879;DHT22;38747;53.140;6.498;2023-06-24T15:52:18;26.40;97.00
52879;DHT22;38747;53.140;6.498;2023-06-24T15:54:44;26.20;96.90